createdAt,value
2019-04-16T00:01:28.005Z,7.300000
2019-04-16T00:03:58.288Z,7.600000
2019-04-16T00:06:28.568Z,7.600000
2019-04-16T00:08:58.948Z,7.500000
2019-04-16T00:11:29.309Z,7.500000
2019-04-16T00:14:02.994Z,8.200000
2019-04-16T00:16:34.542Z,8.200000
2019-04-16T00:19:06.409Z,9.300000
2019-04-16T00:21:38.505Z,9.300000
2019-04-16T00:24:11.674Z,7.800000
2019-04-16T00:26:42.029Z,7.800000
2019-04-16T00:29:12.509Z,8.500000
2019-04-16T00:31:42.774Z,8.500000
2019-04-16T00:34:14.255Z,9.600000
2019-04-16T00:36:48.482Z,9.600000
2019-04-16T00:39:19.585Z,7.500000
2019-04-16T00:41:52.636Z,7.500000
2019-04-16T00:44:22.994Z,9.100000
2019-04-16T00:46:53.369Z,9.100000
2019-04-16T00:49:26.341Z,6.700000
2019-04-16T00:51:57.383Z,6.700000
2019-04-16T00:54:27.663Z,8.000000
2019-04-16T00:56:58.086Z,7.500000
2019-04-16T00:59:28.443Z,7.500000
2019-04-16T01:01:58.781Z,6.900000
2019-04-16T01:04:29.097Z,6.900000
2019-04-16T01:06:59.378Z,8.200000
2019-04-16T01:09:29.736Z,8.200000
2019-04-16T01:12:00.104Z,8.600000
2019-04-16T01:14:30.446Z,8.600000
2019-04-16T01:17:03.868Z,5.900000
2019-04-16T01:19:35.559Z,5.900000
2019-04-16T01:22:05.813Z,6.600000
2019-04-16T01:24:36.085Z,6.600000
2019-04-16T01:27:06.456Z,8.200000
2019-04-16T01:29:36.727Z,8.200000
2019-04-16T01:32:10.309Z,7.900000
2019-04-16T01:34:41.741Z,7.900000
2019-04-16T01:37:11.983Z,7.500000
2019-04-16T01:39:42.528Z,7.500000
2019-04-16T01:42:12.802Z,7.900000
2019-04-16T01:44:43.314Z,7.900000
2019-04-16T01:47:13.707Z,8.000000
2019-04-16T01:49:44.055Z,8.000000
2019-04-16T01:52:18.675Z,6.900000
2019-04-16T01:54:54.457Z,6.900000
2019-04-16T01:57:25.136Z,6.500000
2019-04-16T01:59:55.676Z,6.500000
2019-04-16T02:02:26.024Z,9.100000
2019-04-16T02:04:56.369Z,9.100000
2019-04-16T02:07:31.789Z,7.200000
2019-04-16T02:10:06.410Z,7.200000
2019-04-16T02:12:37.618Z,7.600000
2019-04-16T02:15:09.074Z,7.600000
2019-04-16T02:17:39.442Z,5.500000
2019-04-16T02:20:09.823Z,5.500000
2019-04-16T02:22:42.260Z,7.400000
2019-04-16T02:25:19.027Z,7.400000
2019-04-16T02:27:50.420Z,8.800000
2019-04-16T02:30:20.660Z,8.800000
2019-04-16T02:32:56.071Z,5.700000
2019-04-16T02:35:31.346Z,5.700000
2019-04-16T02:38:01.636Z,8.500000
2019-04-16T02:40:31.997Z,8.500000
2019-04-16T02:43:06.543Z,6.900000
2019-04-16T02:45:37.703Z,6.900000
2019-04-16T02:48:14.664Z,6.800000
2019-04-16T02:50:46.993Z,6.800000
2019-04-16T02:53:17.339Z,6.400000
2019-04-16T02:55:47.620Z,6.400000
2019-04-16T02:58:18.085Z,9.100000
2019-04-16T03:00:50.351Z,9.100000
2019-04-16T03:03:22.242Z,6.100000
2019-04-16T03:05:54.901Z,6.100000
2019-04-16T03:08:25.187Z,6.700000
2019-04-16T03:10:55.523Z,6.700000
2019-04-16T03:13:25.874Z,6.700000
2019-04-16T03:15:56.336Z,6.700000
2019-04-16T03:18:26.700Z,7.000000
2019-04-16T03:20:57.059Z,7.000000
2019-04-16T03:23:27.463Z,10.500000
2019-04-16T03:25:57.805Z,10.500000
2019-04-16T03:28:28.154Z,11.500000
2019-04-16T03:30:58.504Z,11.500000
2019-04-16T03:33:28.941Z,9.300000
2019-04-16T03:35:59.299Z,9.300000
2019-04-16T03:38:29.695Z,7.900000
2019-04-16T03:40:59.994Z,7.900000
2019-04-16T03:43:35.506Z,10.900000
2019-04-16T03:46:05.840Z,10.900000
2019-04-16T03:48:36.190Z,9.800000
2019-04-16T03:51:06.557Z,9.800000
2019-04-16T03:53:36.885Z,11.400000
2019-04-16T03:56:07.209Z,11.400000
2019-04-16T03:58:38.641Z,8.700000
2019-04-16T04:01:09.845Z,8.700000
2019-04-16T04:03:40.176Z,11.400000
2019-04-16T04:06:10.586Z,10.600000
2019-04-16T04:08:40.938Z,10.600000
2019-04-16T04:11:11.276Z,9.200000
2019-04-16T04:13:41.620Z,9.200000
2019-04-16T04:16:12.204Z,9.400000
2019-04-16T04:18:43.325Z,9.400000
2019-04-16T04:21:14.228Z,8.900000
2019-04-16T04:23:44.626Z,8.900000
2019-04-16T04:26:19.922Z,9.500000
2019-04-16T04:28:51.620Z,9.500000
2019-04-16T04:31:22.887Z,11.400000
2019-04-16T04:33:53.221Z,11.400000
2019-04-16T04:36:26.977Z,9.200000
2019-04-16T04:38:58.584Z,9.200000
2019-04-16T04:41:34.033Z,8.200000
2019-04-16T04:44:05.320Z,8.200000
2019-04-16T04:46:35.654Z,10.500000
2019-04-16T04:49:05.978Z,10.500000
2019-04-16T04:51:40.834Z,9.600000
2019-04-16T04:54:13.521Z,9.600000
2019-04-16T04:56:43.903Z,7.600000
2019-04-16T04:59:14.271Z,7.600000
2019-04-16T05:01:44.603Z,9.300000
2019-04-16T05:04:18.922Z,9.300000
2019-04-16T05:06:50.633Z,8.500000
2019-04-16T05:09:20.838Z,8.500000
2019-04-16T05:11:51.274Z,10.100000
2019-04-16T05:14:21.598Z,10.100000
2019-04-16T05:16:52.021Z,6.400000
2019-04-16T05:19:22.490Z,6.400000
2019-04-16T05:21:52.876Z,7.600000
2019-04-16T05:24:23.272Z,7.600000
2019-04-16T05:26:56.328Z,8.600000
2019-04-16T05:29:26.816Z,8.600000
2019-04-16T05:31:57.571Z,8.900000
2019-04-16T05:34:28.827Z,8.900000
2019-04-16T05:36:59.204Z,7.800000
2019-04-16T05:39:29.533Z,7.800000
2019-04-16T05:41:59.865Z,6.800000
2019-04-16T05:44:35.249Z,6.800000
2019-04-16T05:47:05.593Z,7.300000
2019-04-16T05:49:37.055Z,7.300000
2019-04-16T05:52:07.441Z,8.300000
2019-04-16T05:54:37.819Z,8.300000
2019-04-16T05:57:08.073Z,7.900000
2019-04-16T05:59:38.373Z,7.900000
2019-04-16T06:02:08.639Z,7.900000
2019-04-16T06:04:39.041Z,7.900000
2019-04-16T06:07:09.274Z,7.900000
2019-04-16T06:09:41.411Z,7.900000
2019-04-16T06:12:14.779Z,6.000000
2019-04-16T06:14:46.543Z,6.000000
2019-04-16T06:17:19.934Z,9.800000
2019-04-16T06:19:50.279Z,9.800000
2019-04-16T06:22:20.642Z,7.700000
2019-04-16T06:24:50.989Z,7.700000
2019-04-16T06:27:21.435Z,7.200000
2019-04-16T06:29:51.786Z,7.200000
2019-04-16T06:32:22.152Z,6.500000
2019-04-16T06:34:52.606Z,6.500000
2019-04-16T06:37:26.568Z,7.200000
2019-04-16T06:40:00.663Z,7.200000
2019-04-16T06:42:32.101Z,6.200000
2019-04-16T06:45:04.879Z,6.200000
2019-04-16T06:47:36.149Z,6.300000
2019-04-16T06:50:06.527Z,6.300000
2019-04-16T06:52:36.935Z,6.200000
2019-04-16T06:55:07.230Z,6.200000
2019-04-16T06:57:40.390Z,7.200000
2019-04-16T07:00:13.124Z,7.200000
2019-04-16T07:02:50.224Z,8.800000
2019-04-16T07:05:33.110Z,6.100000
2019-04-16T07:08:03.602Z,6.100000
2019-04-16T07:10:43.962Z,7.100000
2019-04-16T07:13:15.276Z,7.100000
2019-04-16T07:15:45.643Z,7.600000
2019-04-16T07:18:15.976Z,7.600000
2019-04-16T07:20:46.660Z,6.300000
2019-04-16T07:23:17.159Z,6.300000
2019-04-16T07:25:47.857Z,8.500000
2019-04-16T07:28:18.445Z,8.500000
2019-04-16T07:30:48.959Z,7.900000
2019-04-16T07:33:19.320Z,7.900000
2019-04-16T07:35:49.866Z,7.200000
2019-04-16T07:38:20.241Z,7.200000
2019-04-16T07:40:50.719Z,5.800000
2019-04-16T07:43:21.108Z,5.800000
2019-04-16T07:45:51.398Z,7.000000
2019-04-16T07:48:23.164Z,7.000000
2019-04-16T07:50:54.019Z,7.900000
2019-04-16T07:53:24.349Z,7.900000
2019-04-16T07:55:59.770Z,6.400000
2019-04-16T07:58:30.149Z,6.400000
2019-04-16T08:01:00.533Z,5.300000
2019-04-16T08:03:30.916Z,5.300000
2019-04-16T08:06:01.219Z,5.100000
2019-04-16T08:08:31.661Z,5.100000
2019-04-16T08:11:02.008Z,4.100000
2019-04-16T08:13:33.637Z,4.100000
2019-04-16T08:16:04.689Z,4.700000
2019-04-16T08:18:35.134Z,4.700000
2019-04-16T08:21:10.225Z,6.900000
2019-04-16T08:23:42.552Z,6.900000
2019-04-16T08:26:13.671Z,4.500000
2019-04-16T08:28:44.254Z,4.500000
2019-04-16T08:31:14.669Z,4.600000
2019-04-16T08:33:45.118Z,4.600000
2019-04-16T08:36:15.428Z,5.300000
2019-04-16T08:38:45.776Z,5.300000
2019-04-16T08:41:19.721Z,5.600000
2019-04-16T08:43:51.553Z,5.600000
2019-04-16T08:46:21.985Z,5.700000
2019-04-16T08:48:54.215Z,5.700000
2019-04-16T08:51:30.638Z,6.600000
2019-04-16T08:54:01.406Z,6.600000
2019-04-16T08:56:31.749Z,6.100000
2019-04-16T08:59:02.198Z,6.100000
2019-04-16T09:01:32.506Z,4.600000
2019-04-16T09:04:03.119Z,4.600000
2019-04-16T09:06:33.619Z,5.400000
2019-04-16T09:09:12.899Z,5.400000
2019-04-16T09:11:48.609Z,5.500000
2019-04-16T09:14:20.971Z,5.500000
2019-04-16T09:16:54.227Z,5.200000
2019-04-16T09:19:24.537Z,5.200000
2019-04-16T09:21:54.874Z,4.000000
2019-04-16T09:24:25.211Z,4.000000
2019-04-16T09:26:56.430Z,6.300000
2019-04-16T09:29:26.811Z,6.300000
2019-04-16T09:31:57.155Z,5.400000
2019-04-16T09:34:27.528Z,5.400000
2019-04-16T09:36:57.836Z,3.800000
2019-04-16T09:39:28.127Z,3.800000
2019-04-16T09:41:58.425Z,7.200000
2019-04-16T09:44:31.537Z,7.200000
2019-04-16T09:47:05.320Z,6.300000
2019-04-16T09:49:37.689Z,6.300000
2019-04-16T09:52:08.752Z,5.000000
2019-04-16T09:54:41.503Z,5.000000
2019-04-16T09:57:14.707Z,4.100000
2019-04-16T09:59:47.665Z,4.100000
2019-04-16T10:02:18.742Z,9.400000
2019-04-16T10:04:49.077Z,9.400000
2019-04-16T10:07:19.548Z,4.000000
2019-04-16T10:09:51.437Z,4.000000
2019-04-16T10:12:25.061Z,4.100000
2019-04-16T10:14:55.440Z,4.100000
2019-04-16T10:17:25.997Z,7.200000
2019-04-16T10:19:56.398Z,7.200000
2019-04-16T10:22:31.818Z,3.700000
2019-04-16T10:25:02.169Z,3.700000
2019-04-16T10:27:32.622Z,5.500000
2019-04-16T10:30:03.325Z,5.500000
2019-04-16T10:32:33.610Z,6.900000
2019-04-16T10:35:03.905Z,6.900000
2019-04-16T10:37:34.437Z,7.700000
2019-04-16T10:40:05.087Z,7.700000
2019-04-16T10:42:35.726Z,4.200000
2019-04-16T10:45:06.122Z,4.200000
2019-04-16T10:47:36.429Z,7.700000
2019-04-16T10:50:06.744Z,7.700000
2019-04-16T10:52:37.125Z,5.300000
2019-04-16T10:55:09.374Z,5.300000
2019-04-16T10:57:42.372Z,5.000000
2019-04-16T11:00:12.836Z,6.400000
2019-04-16T11:02:43.252Z,6.400000
2019-04-16T11:05:15.346Z,3.700000
2019-04-16T11:07:49.358Z,3.700000
2019-04-16T11:10:19.810Z,5.900000
2019-04-16T11:12:50.154Z,5.900000
2019-04-16T11:15:20.590Z,7.400000
2019-04-16T11:17:51.006Z,7.400000
2019-04-16T11:20:21.443Z,5.600000
2019-04-16T11:22:51.793Z,5.600000
2019-04-16T11:25:22.155Z,4.200000
2019-04-16T11:27:52.727Z,4.200000
2019-04-16T11:30:23.034Z,6.400000
2019-04-16T11:32:53.511Z,6.400000
2019-04-16T11:35:23.930Z,6.200000
2019-04-16T11:37:54.311Z,6.200000
2019-04-16T11:40:24.818Z,9.300000
2019-04-16T11:42:55.178Z,9.300000
2019-04-16T11:45:25.651Z,4.300000
2019-04-16T11:47:55.971Z,4.300000
2019-04-16T11:50:26.301Z,8.500000
2019-04-16T11:52:58.437Z,8.500000
2019-04-16T11:55:29.294Z,7.000000
2019-04-16T11:57:59.628Z,7.000000
2019-04-16T12:00:30.126Z,5.300000
2019-04-16T12:03:00.574Z,5.300000
2019-04-16T12:05:30.918Z,8.300000
2019-04-16T12:08:01.320Z,8.300000
2019-04-16T12:10:31.625Z,7.200000
2019-04-16T12:13:03.851Z,7.200000
2019-04-16T12:15:34.702Z,8.600000
2019-04-16T12:18:05.033Z,8.600000
2019-04-16T12:20:35.456Z,4.800000
2019-04-16T12:23:05.971Z,4.800000
2019-04-16T12:25:36.645Z,6.100000
2019-04-16T12:28:11.406Z,6.100000
2019-04-16T12:30:42.823Z,10.400000
2019-04-16T12:33:14.125Z,10.400000
2019-04-16T12:35:45.543Z,6.900000
2019-04-16T12:38:18.547Z,6.900000
2019-04-16T12:40:49.205Z,9.100000
2019-04-16T12:43:19.588Z,9.100000
2019-04-16T12:45:53.257Z,7.800000
2019-04-16T12:48:24.112Z,7.800000
2019-04-16T12:50:54.748Z,6.200000
2019-04-16T12:53:25.103Z,6.200000
2019-04-16T12:55:55.396Z,7.700000
2019-04-16T12:58:25.895Z,7.700000
2019-04-16T13:00:56.359Z,9.800000
2019-04-16T13:03:26.794Z,9.800000
2019-04-16T13:05:57.042Z,6.300000
2019-04-16T13:08:27.432Z,6.300000
2019-04-16T13:10:57.670Z,7.900000
2019-04-16T13:13:27.873Z,7.900000
2019-04-16T13:15:58.219Z,9.800000
2019-04-16T13:18:28.739Z,9.800000
2019-04-16T13:21:03.508Z,9.400000
2019-04-16T13:23:35.444Z,9.400000
2019-04-16T13:26:05.753Z,10.900000
2019-04-16T13:28:36.145Z,10.900000
2019-04-16T13:31:06.578Z,8.300000
2019-04-16T13:33:36.929Z,8.300000
2019-04-16T13:36:07.266Z,8.100000
2019-04-16T13:38:40.168Z,8.100000
2019-04-16T13:41:10.790Z,8.900000
2019-04-16T13:43:41.031Z,8.900000
2019-04-16T13:46:11.392Z,7.500000
2019-04-16T13:48:42.542Z,7.500000
2019-04-16T13:51:16.600Z,8.800000
2019-04-16T13:53:49.013Z,8.800000
2019-04-16T13:56:19.421Z,8.800000
2019-04-16T13:58:49.803Z,8.800000
2019-04-16T14:01:20.150Z,11.900000
2019-04-16T14:03:56.481Z,11.900000
2019-04-16T14:06:32.457Z,9.900000
2019-04-16T14:09:03.061Z,9.900000
2019-04-16T14:11:33.481Z,7.300000
2019-04-16T14:14:08.068Z,7.300000
2019-04-16T14:16:40.855Z,8.800000
2019-04-16T14:19:13.923Z,8.800000
2019-04-16T14:21:44.265Z,8.700000
2019-04-16T14:24:14.589Z,8.700000
2019-04-16T14:26:44.908Z,10.700000
2019-04-16T14:29:15.237Z,10.700000
2019-04-16T14:31:46.093Z,10.200000
2019-04-16T14:34:19.093Z,10.200000
2019-04-16T14:36:49.343Z,10.200000
2019-04-16T14:39:19.551Z,10.200000
2019-04-16T14:41:50.394Z,8.400000
2019-04-16T14:44:21.036Z,8.400000
2019-04-16T14:46:51.438Z,8.300000
2019-04-16T14:49:21.744Z,8.300000
2019-04-16T14:51:52.034Z,6.100000
2019-04-16T14:54:22.467Z,6.100000
2019-04-16T14:56:53.020Z,6.200000
2019-04-16T14:59:33.687Z,6.200000
2019-04-16T15:02:04.598Z,12.200000
2019-04-16T15:04:35.003Z,12.200000
2019-04-16T15:07:05.495Z,12.000000
2019-04-16T15:09:35.953Z,12.000000
2019-04-16T15:12:08.384Z,11.600000
2019-04-16T15:14:39.000Z,11.600000
2019-04-16T15:17:12.733Z,8.400000
2019-04-16T15:19:43.689Z,8.400000
2019-04-16T15:22:14.525Z,7.800000
2019-04-16T15:24:45.307Z,7.800000
2019-04-16T15:27:15.758Z,11.500000
2019-04-16T15:29:46.100Z,11.500000
2019-04-16T15:32:16.508Z,11.900000
2019-04-16T15:34:46.883Z,11.900000
2019-04-16T15:37:17.225Z,8.400000
2019-04-16T15:39:47.676Z,8.400000
2019-04-16T15:42:18.153Z,9.900000
2019-04-16T15:44:48.632Z,9.900000
2019-04-16T15:47:19.063Z,8.200000
2019-04-16T15:49:49.795Z,8.200000
2019-04-16T15:52:20.312Z,6.900000
2019-04-16T15:54:50.633Z,6.900000
2019-04-16T15:57:20.960Z,7.200000
2019-04-16T15:59:51.360Z,7.200000
2019-04-16T16:02:21.844Z,8.600000
2019-04-16T16:04:52.359Z,8.600000
2019-04-16T16:07:24.391Z,10.400000
2019-04-16T16:09:58.194Z,10.400000
2019-04-16T16:12:29.303Z,13.000000
2019-04-16T16:14:59.633Z,10.300000
2019-04-16T16:17:30.022Z,10.300000
2019-04-16T16:20:00.451Z,8.800000
2019-04-16T16:22:31.034Z,8.800000
2019-04-16T16:25:03.717Z,8.000000
2019-04-16T16:27:35.817Z,8.000000
2019-04-16T16:30:06.171Z,14.100000
2019-04-16T16:32:36.603Z,14.100000
2019-04-16T16:35:06.914Z,11.400000
2019-04-16T16:37:37.574Z,11.400000
2019-04-16T16:40:07.985Z,8.300000
2019-04-16T16:42:38.282Z,8.300000
2019-04-16T16:45:08.650Z,9.500000
2019-04-16T16:47:39.819Z,9.500000
2019-04-16T16:50:11.456Z,17.500000
2019-04-16T16:52:41.900Z,17.500000
2019-04-16T16:55:12.156Z,11.700000
2019-04-16T16:57:42.522Z,11.700000
2019-04-16T17:00:12.890Z,10.600000
2019-04-16T17:02:43.252Z,10.600000
2019-04-16T17:05:13.700Z,15.900000
2019-04-16T17:07:44.100Z,15.900000
2019-04-16T17:10:14.537Z,7.000000
2019-04-16T17:12:44.887Z,7.000000
2019-04-16T17:15:15.242Z,13.100000
2019-04-16T17:17:45.934Z,13.100000
2019-04-16T17:20:16.343Z,11.400000
2019-04-16T17:22:46.798Z,11.400000
2019-04-16T17:25:17.127Z,11.500000
2019-04-16T17:27:51.574Z,11.500000
2019-04-16T17:30:22.279Z,7.100000
2019-04-16T17:32:52.641Z,7.100000
2019-04-16T17:35:23.034Z,10.600000
2019-04-16T17:37:53.518Z,10.600000
2019-04-16T17:40:24.052Z,10.300000
2019-04-16T17:42:54.403Z,10.300000
2019-04-16T17:45:24.724Z,11.100000
2019-04-16T17:47:57.232Z,11.100000
2019-04-16T17:50:27.675Z,12.200000
2019-04-16T17:52:58.071Z,12.200000
2019-04-16T17:55:28.401Z,12.700000
2019-04-16T17:57:59.204Z,12.700000
2019-04-16T18:00:29.554Z,8.900000
2019-04-16T18:03:03.045Z,8.900000
2019-04-16T18:05:34.854Z,8.000000
2019-04-16T18:08:05.283Z,8.000000
2019-04-16T18:10:35.741Z,11.500000
2019-04-16T18:13:07.419Z,11.500000
2019-04-16T18:15:42.421Z,10.200000
2019-04-16T18:18:16.843Z,10.200000
2019-04-16T18:20:57.383Z,11.100000
2019-04-16T18:23:29.499Z,11.100000
2019-04-16T18:25:59.901Z,13.500000
2019-04-16T18:28:30.280Z,13.500000
2019-04-16T18:31:00.692Z,9.800000
2019-04-16T18:33:31.217Z,9.800000
2019-04-16T18:36:02.491Z,14.200000
2019-04-16T18:38:33.017Z,14.200000
2019-04-16T18:41:04.148Z,9.900000
2019-04-16T18:43:34.986Z,9.900000
2019-04-16T18:46:10.445Z,16.500000
2019-04-16T18:48:44.636Z,16.500000
2019-04-16T18:51:23.819Z,11.100000
2019-04-16T18:53:54.747Z,11.100000
2019-04-16T18:56:25.060Z,11.300000
2019-04-16T18:58:55.490Z,11.300000
2019-04-16T19:01:25.941Z,13.000000
2019-04-16T19:03:56.254Z,13.000000
2019-04-16T19:06:26.631Z,9.700000
2019-04-16T19:08:57.037Z,9.700000
2019-04-16T19:11:27.460Z,9.500000
2019-04-16T19:13:58.050Z,9.500000
2019-04-16T19:16:28.592Z,10.600000
2019-04-16T19:18:59.054Z,10.600000
2019-04-16T19:21:29.347Z,9.900000
2019-04-16T19:23:59.938Z,9.900000
2019-04-16T19:26:30.571Z,13.900000
2019-04-16T19:29:01.016Z,13.900000
2019-04-16T19:31:31.435Z,8.400000
2019-04-16T19:34:01.944Z,8.400000
2019-04-16T19:36:32.161Z,8.100000
2019-04-16T19:39:05.521Z,8.100000
2019-04-16T19:41:37.043Z,11.400000
2019-04-16T19:44:07.832Z,11.400000
2019-04-16T19:46:38.887Z,10.000000
2019-04-16T19:49:09.230Z,10.000000
2019-04-16T19:51:41.279Z,11.100000
2019-04-16T19:54:12.560Z,11.100000
2019-04-16T19:56:42.992Z,13.900000
2019-04-16T19:59:13.329Z,13.900000
2019-04-16T20:01:43.736Z,11.300000
2019-04-16T20:04:14.097Z,11.300000
2019-04-16T20:06:44.652Z,11.300000
2019-04-16T20:09:15.026Z,11.300000
2019-04-16T20:11:45.387Z,9.800000
2019-04-16T20:14:15.935Z,9.800000
2019-04-16T20:16:51.327Z,13.500000
2019-04-16T20:19:26.651Z,10.600000
2019-04-16T20:21:57.071Z,10.600000
2019-04-16T20:24:27.410Z,11.200000
2019-04-16T20:26:57.794Z,11.200000
2019-04-16T20:29:28.169Z,11.000000
2019-04-16T20:31:58.656Z,11.000000
2019-04-16T20:34:29.077Z,13.500000
2019-04-16T20:36:59.364Z,13.500000
2019-04-16T20:39:29.657Z,12.800000
2019-04-16T20:42:00.153Z,12.800000
2019-04-16T20:44:30.502Z,17.000000
2019-04-16T20:47:03.309Z,17.000000
2019-04-16T20:49:38.092Z,10.800000
2019-04-16T20:52:08.593Z,10.800000
2019-04-16T20:54:44.052Z,11.600000
2019-04-16T20:57:15.271Z,11.600000
2019-04-16T20:59:45.679Z,13.400000
2019-04-16T21:02:16.065Z,13.400000
2019-04-16T21:04:46.343Z,17.900000
2019-04-16T21:07:16.796Z,17.900000
2019-04-16T21:09:47.375Z,13.100000
2019-04-16T21:12:17.836Z,13.100000
2019-04-16T21:14:50.896Z,11.400000
2019-04-16T21:17:24.032Z,11.400000
2019-04-16T21:19:54.443Z,12.400000
2019-04-16T21:22:27.666Z,12.400000
2019-04-16T21:24:59.093Z,12.900000
2019-04-16T21:27:29.566Z,12.900000
2019-04-16T21:30:03.014Z,12.800000
2019-04-16T21:32:39.295Z,12.800000
2019-04-16T21:35:09.675Z,17.700000
2019-04-16T21:37:40.116Z,17.700000
2019-04-16T21:40:10.523Z,16.700000
2019-04-16T21:42:40.899Z,16.700000
2019-04-16T21:45:13.665Z,17.200000
2019-04-16T21:47:46.710Z,17.200000
2019-04-16T21:50:17.227Z,16.700000
2019-04-16T21:52:47.685Z,16.700000
2019-04-16T21:55:18.024Z,18.500000
2019-04-16T21:57:48.587Z,18.500000
2019-04-16T22:00:18.917Z,17.100000
2019-04-16T22:02:49.373Z,17.100000
2019-04-16T22:05:19.802Z,17.100000
2019-04-16T22:07:50.287Z,17.100000
2019-04-16T22:10:20.725Z,12.200000
2019-04-16T22:12:51.136Z,12.200000
2019-04-16T22:15:25.160Z,19.100000
2019-04-16T22:17:56.397Z,19.100000
2019-04-16T22:20:26.733Z,15.800000
2019-04-16T22:22:58.126Z,15.800000
2019-04-16T22:25:28.540Z,12.500000
2019-04-16T22:27:58.910Z,12.500000
2019-04-16T22:30:29.253Z,14.100000
2019-04-16T22:33:05.235Z,14.100000
2019-04-16T22:35:37.227Z,13.300000
2019-04-16T22:38:10.552Z,13.300000
2019-04-16T22:40:44.085Z,12.900000
2019-04-16T22:43:14.524Z,12.900000
2019-04-16T22:45:44.855Z,17.500000
2019-04-16T22:48:15.215Z,17.500000
2019-04-16T22:50:45.595Z,17.600000
2019-04-16T22:53:17.207Z,17.600000
2019-04-16T22:55:48.332Z,15.000000
2019-04-16T22:58:18.688Z,15.000000
2019-04-16T23:00:49.023Z,16.000000
2019-04-16T23:03:19.667Z,16.000000
2019-04-16T23:05:50.532Z,11.400000
2019-04-16T23:08:20.906Z,11.400000
2019-04-16T23:10:52.138Z,16.900000
2019-04-16T23:13:22.601Z,16.900000
2019-04-16T23:15:53.027Z,17.200000
2019-04-16T23:18:23.407Z,17.200000
2019-04-16T23:20:53.755Z,14.500000
2019-04-16T23:23:24.091Z,14.500000
2019-04-16T23:25:59.005Z,16.600000
2019-04-16T23:28:30.627Z,16.600000
2019-04-16T23:31:00.964Z,11.600000
2019-04-16T23:33:32.827Z,11.600000
2019-04-16T23:36:03.952Z,13.600000
2019-04-16T23:38:34.307Z,13.600000
2019-04-16T23:41:04.965Z,19.300000
2019-04-16T23:43:35.337Z,14.700000
2019-04-16T23:46:06.414Z,14.700000
2019-04-16T23:48:37.190Z,12.800000
2019-04-16T23:51:07.649Z,12.800000
2019-04-16T23:53:38.283Z,18.200000
2019-04-16T23:56:09.370Z,18.200000
2019-04-16T23:58:39.936Z,19.500000
